createdAt,value
2023-05-06T00:00:02.814Z,26.98
2023-05-06T00:01:02.851Z,26.98
2023-05-06T00:02:02.939Z,26.99
2023-05-06T00:03:03.053Z,27.00
2023-05-06T00:04:03.284Z,26.98
2023-05-06T00:05:03.120Z,26.98
2023-05-06T00:06:03.154Z,26.96
2023-05-06T00:07:03.220Z,26.98
2023-05-06T00:08:03.268Z,26.98
2023-05-06T00:09:03.360Z,26.99
2023-05-06T00:10:03.425Z,26.96
2023-05-06T00:11:03.441Z,26.98
2023-05-06T00:12:03.511Z,26.96
2023-05-06T00:13:03.603Z,26.98
2023-05-06T00:14:03.645Z,26.96
2023-05-06T00:15:03.713Z,26.96
2023-05-06T00:16:03.845Z,26.95
2023-05-06T00:17:03.841Z,26.96
2023-05-06T00:18:03.912Z,26.96
2023-05-06T00:19:03.940Z,26.98
2023-05-06T00:20:04.018Z,26.96
2023-05-06T00:21:04.085Z,26.95
2023-05-06T00:22:04.216Z,26.98
2023-05-06T00:23:04.188Z,26.96
2023-05-06T00:24:04.258Z,26.96
2023-05-06T00:25:04.306Z,26.96
2023-05-06T00:26:04.392Z,26.96
2023-05-06T00:27:04.434Z,26.96
2023-05-06T00:28:04.501Z,26.98
2023-05-06T00:29:04.545Z,26.95
2023-05-06T00:30:04.627Z,26.98
2023-05-06T00:31:04.639Z,26.96
2023-05-06T00:32:04.790Z,26.96
2023-05-06T00:33:04.841Z,26.96
2023-05-06T00:34:04.858Z,26.93
2023-05-06T00:35:04.959Z,26.93
2023-05-06T00:36:04.956Z,26.93
2023-05-06T00:37:05.013Z,26.93
2023-05-06T00:38:05.086Z,26.95
2023-05-06T00:39:05.124Z,26.93
2023-05-06T00:40:05.188Z,26.95
2023-05-06T00:41:05.224Z,26.93
2023-05-06T00:42:05.302Z,26.95
2023-05-06T00:43:05.357Z,26.95
2023-05-06T00:44:05.378Z,26.95
2023-05-06T00:45:05.423Z,26.95
2023-05-06T00:46:05.587Z,26.95
2023-05-06T00:47:05.552Z,26.95
2023-05-06T00:48:05.761Z,26.93
2023-05-06T00:49:05.672Z,26.90
2023-05-06T00:50:05.734Z,26.93
2023-05-06T00:51:05.758Z,26.92
2023-05-06T00:52:05.834Z,26.92
2023-05-06T00:53:05.874Z,26.95
2023-05-06T00:54:06.131Z,26.92
2023-05-06T00:55:06.034Z,26.93
2023-05-06T00:56:06.052Z,26.92
2023-05-06T00:57:06.122Z,26.93
2023-05-06T00:58:06.150Z,26.93
2023-05-06T00:59:06.208Z,26.92
2023-05-06T01:00:06.295Z,26.93
2023-05-06T01:01:06.371Z,26.93
2023-05-06T01:02:06.407Z,26.90
2023-05-06T01:03:06.566Z,26.92
2023-05-06T01:04:06.582Z,26.92
2023-05-06T01:05:06.689Z,26.92
2023-05-06T01:06:06.620Z,26.90
2023-05-06T01:07:06.632Z,26.89
2023-05-06T01:08:06.708Z,26.92
2023-05-06T01:09:06.767Z,26.92
2023-05-06T01:10:06.853Z,26.93
2023-05-06T01:11:06.839Z,26.90
2023-05-06T01:12:06.874Z,26.90
2023-05-06T01:13:06.927Z,26.90
2023-05-06T01:14:06.907Z,26.92
2023-05-06T01:15:07.062Z,26.89
2023-05-06T01:16:06.992Z,26.89
2023-05-06T01:17:07.091Z,26.90
2023-05-06T01:18:07.128Z,26.90
2023-05-06T01:19:07.143Z,26.89
2023-05-06T01:20:07.217Z,26.88
2023-05-06T01:21:07.253Z,26.89
2023-05-06T01:22:07.309Z,26.89
2023-05-06T01:23:07.329Z,26.90
2023-05-06T01:24:07.379Z,26.89
2023-05-06T01:25:07.643Z,26.89
2023-05-06T01:26:07.595Z,26.86
2023-05-06T01:27:07.559Z,26.90
2023-05-06T01:28:07.595Z,26.89
2023-05-06T01:29:07.648Z,26.89
2023-05-06T01:30:07.681Z,26.89
2023-05-06T01:31:07.744Z,26.88
2023-05-06T01:32:07.730Z,26.89
2023-05-06T01:33:07.804Z,26.89
2023-05-06T01:34:07.851Z,26.86
2023-05-06T01:35:08.250Z,26.89
2023-05-06T01:36:07.879Z,26.90
2023-05-06T01:37:07.949Z,26.88
2023-05-06T01:38:07.973Z,26.86
2023-05-06T01:39:07.968Z,26.89
2023-05-06T01:40:08.051Z,26.88
2023-05-06T01:41:08.061Z,26.86
2023-05-06T01:42:08.090Z,26.89
2023-05-06T01:43:08.113Z,26.88
2023-05-06T01:44:08.116Z,26.86
2023-05-06T01:45:08.384Z,26.89
2023-05-06T01:46:08.220Z,26.85
2023-05-06T01:47:08.213Z,26.89
2023-05-06T01:48:08.303Z,26.86
2023-05-06T01:49:08.313Z,26.88
2023-05-06T01:50:08.359Z,26.88
2023-05-06T01:51:08.404Z,26.85
2023-05-06T01:52:08.441Z,26.83
2023-05-06T01:53:08.484Z,26.86
2023-05-06T01:54:08.531Z,26.86
2023-05-06T01:55:08.877Z,26.85
2023-05-06T01:56:08.598Z,26.85
2023-05-06T01:57:08.641Z,26.85
2023-05-06T01:58:08.736Z,26.86
2023-05-06T01:59:08.682Z,26.88
2023-05-06T02:00:08.774Z,26.85
2023-05-06T02:02:08.978Z,26.85
2023-05-06T02:03:08.983Z,26.83
2023-05-06T02:04:08.964Z,26.85
2023-05-06T02:05:09.187Z,26.86
2023-05-06T02:06:08.947Z,26.85
2023-05-06T02:07:08.943Z,26.85
2023-05-06T02:08:08.990Z,26.85
2023-05-06T02:09:08.990Z,26.85
2023-05-06T02:10:09.031Z,26.83
2023-05-06T02:11:09.043Z,26.85
2023-05-06T02:12:09.071Z,26.82
2023-05-06T02:13:09.100Z,26.85
2023-05-06T02:14:09.155Z,26.85
2023-05-06T02:15:09.388Z,26.85
2023-05-06T02:16:09.234Z,26.83
2023-05-06T02:17:09.170Z,26.83
2023-05-06T02:18:09.165Z,26.86
2023-05-06T02:19:09.168Z,26.86
2023-05-06T02:20:09.178Z,26.83
2023-05-06T02:21:09.214Z,26.86
2023-05-06T02:22:09.207Z,26.83
2023-05-06T02:23:09.193Z,26.82
2023-05-06T02:24:09.204Z,26.83
2023-05-06T02:26:09.224Z,26.83
2023-05-06T02:27:09.259Z,26.83
2023-05-06T02:28:09.235Z,26.82
2023-05-06T02:29:09.232Z,26.83
2023-05-06T02:30:09.349Z,26.82
2023-05-06T02:31:09.235Z,26.83
2023-05-06T02:32:09.256Z,26.83
2023-05-06T02:33:09.268Z,26.85
2023-05-06T02:34:09.283Z,26.82
2023-05-06T02:35:09.454Z,26.82
2023-05-06T02:36:09.289Z,26.82
2023-05-06T02:37:09.292Z,26.85
2023-05-06T02:38:09.257Z,26.82
2023-05-06T02:39:09.305Z,26.85
2023-05-06T02:40:09.312Z,26.81
2023-05-06T02:41:09.306Z,26.82
2023-05-06T02:42:09.354Z,26.81
2023-05-06T02:43:09.334Z,26.82
2023-05-06T02:44:09.356Z,26.83
2023-05-06T02:45:09.558Z,26.82
2023-05-06T02:46:09.420Z,26.82
2023-05-06T02:47:09.345Z,26.82
2023-05-06T02:48:09.367Z,26.79
2023-05-06T02:49:09.332Z,26.78
2023-05-06T02:50:09.371Z,26.82
2023-05-06T02:51:09.353Z,26.79
2023-05-06T02:52:09.377Z,26.81
2023-05-06T02:53:09.345Z,26.82
2023-05-06T02:54:09.316Z,26.81
2023-05-06T02:55:09.437Z,26.81
2023-05-06T02:56:09.344Z,26.79
2023-05-06T02:57:09.333Z,26.81
2023-05-06T02:58:09.344Z,26.79
2023-05-06T02:59:09.354Z,26.82
2023-05-06T03:00:09.323Z,26.81
2023-05-06T03:01:09.388Z,26.81
2023-05-06T03:02:09.386Z,26.82
2023-05-06T03:03:09.399Z,26.79
2023-05-06T03:04:09.396Z,26.79
2023-05-06T03:05:09.574Z,26.79
2023-05-06T03:06:09.357Z,26.79
2023-05-06T03:07:09.386Z,26.81
2023-05-06T03:08:09.373Z,26.78
2023-05-06T03:09:09.379Z,26.79
2023-05-06T03:10:09.394Z,26.79
2023-05-06T03:11:09.351Z,26.79
2023-05-06T03:12:09.382Z,26.79
2023-05-06T03:13:09.474Z,26.77
2023-05-06T03:14:09.356Z,26.78
2023-05-06T03:15:09.678Z,26.79
2023-05-06T03:16:09.425Z,26.79
2023-05-06T03:17:09.366Z,26.77
2023-05-06T03:18:09.475Z,26.78
2023-05-06T03:19:09.395Z,26.79
2023-05-06T03:20:09.371Z,26.79
2023-05-06T03:21:09.408Z,26.78
2023-05-06T03:22:09.357Z,26.79
2023-05-06T03:23:09.363Z,26.79
2023-05-06T03:24:09.359Z,26.81
2023-05-06T03:25:09.460Z,26.78
2023-05-06T03:26:09.348Z,26.78
2023-05-06T03:27:09.334Z,26.77
2023-05-06T03:28:09.334Z,26.79
2023-05-06T03:29:09.353Z,26.79
2023-05-06T03:30:09.364Z,26.78
2023-05-06T03:31:09.381Z,26.75
2023-05-06T03:32:09.326Z,26.77
2023-05-06T03:33:09.334Z,26.78
2023-05-06T03:34:10.332Z,26.78
2023-05-06T03:35:09.489Z,26.78
2023-05-06T03:36:09.407Z,26.77
2023-05-06T03:37:09.292Z,26.77
2023-05-06T03:38:09.291Z,26.77
2023-05-06T03:39:09.266Z,26.78
2023-05-06T03:40:09.298Z,26.77
2023-05-06T03:41:09.285Z,26.77
2023-05-06T03:42:09.934Z,26.75
2023-05-06T03:43:09.252Z,26.77
2023-05-06T03:44:09.254Z,26.78
2023-05-06T03:45:09.450Z,26.75
2023-05-06T03:46:09.282Z,26.77
2023-05-06T03:47:09.243Z,26.75
2023-05-06T03:48:09.280Z,26.75
2023-05-06T03:49:09.224Z,26.77
2023-05-06T03:50:09.266Z,26.75
2023-05-06T03:51:10.194Z,26.71
2023-05-06T03:52:09.241Z,26.78
2023-05-06T03:53:09.197Z,26.75
2023-05-06T03:54:09.234Z,26.75
2023-05-06T03:55:09.356Z,26.77
2023-05-06T03:56:09.220Z,26.75
2023-05-06T03:57:09.215Z,26.74
2023-05-06T03:58:09.181Z,26.74
2023-05-06T03:59:09.212Z,26.77
2023-05-06T04:00:09.170Z,26.75
2023-05-06T04:01:09.194Z,26.75
2023-05-06T04:02:09.229Z,26.74
2023-05-06T04:03:09.250Z,26.74
2023-05-06T04:04:09.274Z,26.75
2023-05-06T04:05:09.347Z,26.72
2023-05-06T04:06:09.177Z,26.74
2023-05-06T04:07:09.205Z,26.75
2023-05-06T04:08:09.179Z,26.75
2023-05-06T04:09:09.172Z,26.72
2023-05-06T04:10:09.157Z,26.75
2023-05-06T04:11:09.192Z,26.75
2023-05-06T04:12:09.170Z,26.72
2023-05-06T04:13:09.234Z,26.77
2023-05-06T04:14:09.154Z,26.74
2023-05-06T04:15:09.431Z,26.75
2023-05-06T04:16:09.189Z,26.77
2023-05-06T04:17:09.134Z,26.74
2023-05-06T04:18:09.191Z,26.74
2023-05-06T04:19:09.124Z,26.74
2023-05-06T04:20:09.185Z,26.71
2023-05-06T04:21:09.135Z,26.72
2023-05-06T04:22:09.138Z,26.74
2023-05-06T04:23:09.123Z,26.74
2023-05-06T04:24:09.140Z,26.75
2023-05-06T04:25:09.302Z,26.75
2023-05-06T04:26:09.110Z,26.74
2023-05-06T04:27:09.127Z,26.74
2023-05-06T04:28:09.089Z,26.72
2023-05-06T04:29:09.124Z,26.74
2023-05-06T04:30:09.109Z,26.74
2023-05-06T04:31:09.127Z,26.72
2023-05-06T04:32:09.256Z,26.75
2023-05-06T04:33:09.191Z,26.72
2023-05-06T04:34:09.097Z,26.71
2023-05-06T04:35:09.287Z,26.75
2023-05-06T04:36:09.101Z,26.74
2023-05-06T04:37:09.089Z,26.74
2023-05-06T04:38:09.176Z,26.71
2023-05-06T04:39:09.101Z,26.74
2023-05-06T04:40:09.151Z,26.72
2023-05-06T04:41:09.113Z,26.74
2023-05-06T04:42:09.103Z,26.72
2023-05-06T04:43:09.082Z,26.72
2023-05-06T04:44:09.103Z,26.72
2023-05-06T04:45:09.293Z,26.71
2023-05-06T04:46:09.083Z,26.71
2023-05-06T04:47:09.109Z,26.74
2023-05-06T04:48:09.091Z,26.71
2023-05-06T04:49:10.814Z,26.72
2023-05-06T04:50:09.096Z,26.69
2023-05-06T04:51:09.065Z,26.74
2023-05-06T04:52:09.029Z,26.72
2023-05-06T04:53:09.038Z,26.71
2023-05-06T04:54:09.052Z,26.72
2023-05-06T04:55:09.350Z,26.71
2023-05-06T04:56:09.007Z,26.72
2023-05-06T04:57:09.003Z,26.67
2023-05-06T04:58:09.017Z,26.74
2023-05-06T04:59:09.004Z,26.74
2023-05-06T05:00:09.218Z,26.72
2023-05-06T05:01:09.056Z,26.69
2023-05-06T05:02:09.018Z,26.71
2023-05-06T05:03:09.057Z,26.72
2023-05-06T05:04:08.947Z,26.74
2023-05-06T05:05:09.272Z,26.71
2023-05-06T05:06:08.975Z,26.71
2023-05-06T05:07:08.934Z,26.69
2023-05-06T05:08:08.916Z,26.71
2023-05-06T05:09:08.931Z,26.74
2023-05-06T05:10:08.987Z,26.74
2023-05-06T05:11:08.923Z,26.72
2023-05-06T05:12:08.914Z,26.71
2023-05-06T05:13:08.963Z,26.71
2023-05-06T05:14:08.899Z,26.72
2023-05-06T05:15:09.258Z,26.71
2023-05-06T05:16:08.882Z,26.71
2023-05-06T05:17:08.978Z,26.72
2023-05-06T05:18:09.007Z,26.69
2023-05-06T05:19:09.504Z,26.72
2023-05-06T05:20:08.842Z,26.74
2023-05-06T05:21:08.819Z,26.71
2023-05-06T05:22:08.810Z,26.71
2023-05-06T05:23:08.814Z,26.72
2023-05-06T05:24:08.822Z,26.72
2023-05-06T05:25:08.875Z,26.72
2023-05-06T05:26:08.866Z,26.72
2023-05-06T05:27:08.784Z,26.74
2023-05-06T05:28:08.762Z,26.72
2023-05-06T05:29:08.790Z,26.72
2023-05-06T05:30:08.763Z,26.72
2023-05-06T05:31:10.490Z,26.72
2023-05-06T05:32:08.741Z,26.71
2023-05-06T05:33:08.863Z,26.72
2023-05-06T05:34:08.726Z,26.74
2023-05-06T05:35:08.922Z,26.72
2023-05-06T05:36:08.747Z,26.74
2023-05-06T05:37:08.701Z,26.72
2023-05-06T05:38:08.733Z,26.72
2023-05-06T05:39:08.712Z,26.72
2023-05-06T05:40:08.685Z,26.71
2023-05-06T05:41:08.682Z,26.74
2023-05-06T05:42:08.667Z,26.74
2023-05-06T05:43:08.658Z,26.74
2023-05-06T05:44:08.691Z,26.72
2023-05-06T05:45:08.870Z,26.72
2023-05-06T05:46:08.650Z,26.72
2023-05-06T05:47:08.631Z,26.71
2023-05-06T05:48:08.641Z,26.75
2023-05-06T05:49:08.637Z,26.72
2023-05-06T05:50:08.642Z,26.72
2023-05-06T05:51:08.638Z,26.71
2023-05-06T05:52:08.642Z,26.71
2023-05-06T05:53:08.593Z,26.72
2023-05-06T05:54:08.581Z,26.72
2023-05-06T05:55:08.692Z,26.72
2023-05-06T05:56:08.593Z,26.71
2023-05-06T05:57:08.601Z,26.72
2023-05-06T05:58:08.575Z,26.72
2023-05-06T05:59:08.571Z,26.72
2023-05-06T06:00:08.550Z,26.72
2023-05-06T06:01:08.563Z,26.74
2023-05-06T06:02:08.545Z,26.72
2023-05-06T06:03:08.622Z,26.75
2023-05-06T06:04:09.445Z,26.74
2023-05-06T06:05:08.796Z,26.74
2023-05-06T06:06:08.533Z,26.74
2023-05-06T06:07:08.495Z,26.75
2023-05-06T06:08:08.481Z,26.75
2023-05-06T06:09:08.465Z,26.74
2023-05-06T06:10:08.476Z,26.74
2023-05-06T06:11:08.494Z,26.75
2023-05-06T06:12:08.446Z,26.75
2023-05-06T06:13:08.592Z,26.75
2023-05-06T06:14:08.525Z,26.74
2023-05-06T06:15:08.714Z,26.75
2023-05-06T06:16:08.640Z,26.74
2023-05-06T06:17:08.483Z,26.72
2023-05-06T06:18:08.499Z,26.75
2023-05-06T06:19:08.452Z,26.75
2023-05-06T06:20:08.425Z,26.74
2023-05-06T06:21:08.413Z,26.74
2023-05-06T06:22:08.396Z,26.74
2023-05-06T06:23:08.376Z,26.75
2023-05-06T06:24:08.368Z,26.72
2023-05-06T06:25:08.447Z,26.78
2023-05-06T06:26:09.140Z,26.75
2023-05-06T06:27:08.365Z,26.77
2023-05-06T06:28:08.322Z,26.75
2023-05-06T06:29:08.337Z,26.75
2023-05-06T06:30:08.415Z,26.74
2023-05-06T06:31:08.366Z,26.74
2023-05-06T06:32:08.413Z,26.75
2023-05-06T06:33:08.318Z,26.75
2023-05-06T06:34:08.294Z,26.77
2023-05-06T06:35:08.508Z,26.77
2023-05-06T06:36:08.277Z,26.75
2023-05-06T06:37:08.302Z,26.75
2023-05-06T06:38:08.276Z,26.74
2023-05-06T06:39:08.272Z,26.74
2023-05-06T06:40:08.269Z,26.77
2023-05-06T06:41:08.268Z,26.77
2023-05-06T06:42:08.257Z,26.77
2023-05-06T06:43:08.227Z,26.75
2023-05-06T06:44:08.232Z,26.77
2023-05-06T06:45:08.443Z,26.77
2023-05-06T06:46:08.360Z,26.77
2023-05-06T06:47:08.223Z,26.75
2023-05-06T06:48:08.255Z,26.77
2023-05-06T06:49:08.210Z,26.78
2023-05-06T06:50:08.208Z,26.75
2023-05-06T06:51:08.187Z,26.78
2023-05-06T06:52:08.155Z,26.77
2023-05-06T06:53:08.177Z,26.77
2023-05-06T06:54:08.182Z,26.79
2023-05-06T06:55:08.362Z,26.77
2023-05-06T06:56:08.174Z,26.78
2023-05-06T06:57:08.137Z,26.78
2023-05-06T06:58:08.139Z,26.78
2023-05-06T06:59:08.150Z,26.78
2023-05-06T07:00:08.175Z,26.77
2023-05-06T07:01:08.168Z,26.79
2023-05-06T07:02:08.142Z,26.78
2023-05-06T07:03:08.150Z,26.79
2023-05-06T07:04:08.109Z,26.81
2023-05-06T07:05:08.268Z,26.81
2023-05-06T07:06:08.094Z,26.79
2023-05-06T07:07:08.094Z,26.82
2023-05-06T07:08:08.101Z,26.81
2023-05-06T07:09:08.099Z,26.82
2023-05-06T07:10:08.103Z,26.81
2023-05-06T07:11:08.084Z,26.81
2023-05-06T07:12:08.128Z,26.81
2023-05-06T07:13:08.120Z,26.79
2023-05-06T07:14:08.118Z,26.82
2023-05-06T07:15:08.235Z,26.83
2023-05-06T07:16:08.128Z,26.81
2023-05-06T07:17:08.113Z,26.82
2023-05-06T07:18:08.134Z,26.85
2023-05-06T07:19:08.135Z,26.85
2023-05-06T07:20:08.193Z,26.83
2023-05-06T07:21:08.179Z,26.88
2023-05-06T07:22:08.155Z,26.85
2023-05-06T07:23:08.196Z,26.83
2023-05-06T07:24:08.214Z,26.85
2023-05-06T07:25:08.278Z,26.86
2023-05-06T07:26:08.219Z,26.85
2023-05-06T07:27:08.252Z,26.86
2023-05-06T07:28:08.253Z,26.85
2023-05-06T07:29:08.279Z,26.88
2023-05-06T07:30:08.313Z,26.86
2023-05-06T07:31:08.351Z,26.88
2023-05-06T07:32:08.323Z,26.86
2023-05-06T07:33:08.365Z,26.86
2023-05-06T07:34:08.331Z,26.86
2023-05-06T07:35:08.481Z,26.89
2023-05-06T07:36:08.371Z,26.86
2023-05-06T07:37:08.426Z,26.89
2023-05-06T07:38:08.445Z,26.88
2023-05-06T07:39:08.452Z,26.90
2023-05-06T07:40:08.499Z,26.89
2023-05-06T07:41:08.554Z,26.89
2023-05-06T07:42:08.619Z,26.89
2023-05-06T07:43:08.616Z,26.93
2023-05-06T07:44:08.632Z,26.89
2023-05-06T07:45:08.851Z,26.92
2023-05-06T07:46:08.735Z,26.90
2023-05-06T07:47:08.860Z,26.93
2023-05-06T07:48:08.861Z,26.93
2023-05-06T07:49:08.860Z,26.96
2023-05-06T07:50:09.032Z,26.93
2023-05-06T07:51:08.980Z,26.95
2023-05-06T07:52:09.036Z,26.93
2023-05-06T07:53:09.038Z,26.93
2023-05-06T07:54:09.106Z,26.95
2023-05-06T07:55:09.487Z,26.95
2023-05-06T07:56:09.224Z,26.96
2023-05-06T07:57:09.274Z,26.95
2023-05-06T07:58:09.340Z,26.95
2023-05-06T07:59:09.390Z,26.95
2023-05-06T08:00:09.447Z,26.96
2023-05-06T08:01:09.497Z,26.96
2023-05-06T08:02:09.607Z,26.96
2023-05-06T08:03:09.806Z,26.98
2023-05-06T08:04:09.760Z,26.96
2023-05-06T08:05:09.910Z,26.98
2023-05-06T08:06:09.853Z,26.96
2023-05-06T08:07:09.854Z,26.98
2023-05-06T08:08:09.920Z,26.99
2023-05-06T08:09:11.373Z,26.98
2023-05-06T08:10:09.967Z,26.99
2023-05-06T08:11:09.989Z,27.00
2023-05-06T08:12:09.960Z,26.99
2023-05-06T08:13:10.029Z,26.99
2023-05-06T08:14:09.915Z,27.00
2023-05-06T08:15:10.107Z,26.98
2023-05-06T08:16:09.964Z,26.99
2023-05-06T08:17:09.920Z,27.02
2023-05-06T08:18:20.937Z,27.00
2023-05-06T08:19:10.931Z,27.00
2023-05-06T08:20:09.896Z,27.00
2023-05-06T08:21:09.874Z,26.99
2023-05-06T08:22:09.930Z,27.00
2023-05-06T08:23:09.864Z,27.03
2023-05-06T08:24:09.855Z,27.02
2023-05-06T08:25:10.072Z,27.03
2023-05-06T08:26:09.859Z,27.05
2023-05-06T08:27:09.841Z,27.03
2023-05-06T08:28:09.893Z,27.05
2023-05-06T08:29:09.964Z,27.03
2023-05-06T08:30:10.072Z,27.05
2023-05-06T08:31:10.207Z,27.05
2023-05-06T08:32:10.221Z,27.07
2023-05-06T08:33:10.235Z,27.06
2023-05-06T08:34:10.267Z,27.09
2023-05-06T08:35:10.529Z,27.05
2023-05-06T08:36:10.362Z,27.07
2023-05-06T08:37:10.481Z,27.06
2023-05-06T08:38:10.616Z,27.06
2023-05-06T08:39:10.598Z,27.05
2023-05-06T08:40:10.684Z,27.07
2023-05-06T08:41:10.671Z,27.07
2023-05-06T08:42:10.745Z,27.09
2023-05-06T08:43:10.815Z,27.07
2023-05-06T08:44:10.859Z,27.07
2023-05-06T08:45:11.079Z,27.05
2023-05-06T08:46:11.014Z,27.10
2023-05-06T08:47:11.058Z,27.06
2023-05-06T08:48:11.115Z,27.06
2023-05-06T08:49:11.186Z,27.07
2023-05-06T08:50:11.274Z,27.09
2023-05-06T08:51:11.320Z,27.09
2023-05-06T08:52:11.356Z,27.07
2023-05-06T08:53:11.462Z,27.09
2023-05-06T08:54:11.604Z,27.10
2023-05-06T08:55:11.757Z,27.10
2023-05-06T08:56:11.638Z,27.10
2023-05-06T08:57:12.568Z,27.10
2023-05-06T08:58:11.704Z,27.11
2023-05-06T08:59:11.785Z,27.09
2023-05-06T09:00:11.863Z,27.11
2023-05-06T09:01:11.935Z,27.07
2023-05-06T09:02:11.967Z,27.10
2023-05-06T09:03:12.034Z,27.11
2023-05-06T09:04:12.089Z,27.11
2023-05-06T09:05:12.403Z,27.11
2023-05-06T09:06:12.172Z,27.10
2023-05-06T09:07:12.232Z,27.10
2023-05-06T09:08:12.294Z,27.13
2023-05-06T09:09:12.373Z,27.10
2023-05-06T09:10:12.936Z,27.13
2023-05-06T09:11:12.435Z,27.10
2023-05-06T09:12:12.519Z,27.09
2023-05-06T09:13:12.596Z,27.09
2023-05-06T09:14:12.655Z,27.11
2023-05-06T09:15:12.931Z,27.10
2023-05-06T09:16:12.797Z,27.10
2023-05-06T09:17:12.868Z,27.07
2023-05-06T09:18:12.987Z,27.07
2023-05-06T09:19:12.949Z,27.11
2023-05-06T09:20:12.995Z,27.11
2023-05-06T09:21:13.047Z,27.09
2023-05-06T09:22:13.097Z,27.07
2023-05-06T09:23:13.163Z,27.10
2023-05-06T09:24:13.244Z,27.07
2023-05-06T09:25:13.395Z,27.09
2023-05-06T09:26:13.404Z,27.09
2023-05-06T09:27:15.180Z,27.07
2023-05-06T09:28:13.435Z,27.06
2023-05-06T09:29:13.550Z,27.07
2023-05-06T09:30:13.612Z,27.07
2023-05-06T09:31:13.684Z,27.10
2023-05-06T09:32:13.716Z,27.07
2023-05-06T09:33:13.808Z,27.07
2023-05-06T09:34:13.803Z,27.06
2023-05-06T09:35:14.065Z,27.09
2023-05-06T09:36:13.922Z,27.07
2023-05-06T09:37:13.956Z,27.07
2023-05-06T09:38:14.014Z,27.07
2023-05-06T09:39:14.100Z,27.09
2023-05-06T09:40:14.152Z,27.09
2023-05-06T09:41:14.211Z,27.09
2023-05-06T09:42:14.496Z,27.09
2023-05-06T09:43:14.328Z,27.10
2023-05-06T09:44:14.421Z,27.09
2023-05-06T09:45:14.469Z,27.07
2023-05-06T09:46:14.591Z,27.07
2023-05-06T09:47:14.560Z,27.07
2023-05-06T09:48:14.644Z,27.09
2023-05-06T09:49:14.676Z,27.07
2023-05-06T09:50:14.741Z,27.06
2023-05-06T09:51:14.781Z,27.07
2023-05-06T09:52:14.884Z,27.06
2023-05-06T09:53:14.947Z,27.05
2023-05-06T09:54:15.000Z,27.06
2023-05-06T09:55:15.057Z,27.09
2023-05-06T09:56:15.134Z,27.06
2023-05-06T09:57:15.171Z,27.06
2023-05-06T09:58:15.311Z,27.09
2023-05-06T09:59:15.868Z,27.07
2023-05-06T10:00:15.332Z,27.07
2023-05-06T10:01:25.154Z,27.07
2023-05-06T10:02:16.481Z,27.07
2023-05-06T10:03:15.532Z,27.10
2023-05-06T10:04:15.489Z,27.09
2023-05-06T10:05:15.781Z,27.09
2023-05-06T10:06:15.384Z,27.10
2023-05-06T10:07:15.381Z,27.07
2023-05-06T10:08:15.356Z,27.11
2023-05-06T10:09:15.367Z,27.11
2023-05-06T10:10:15.349Z,27.13
2023-05-06T10:11:15.352Z,27.11
2023-05-06T10:12:15.379Z,27.13
2023-05-06T10:13:15.464Z,27.13
2023-05-06T10:14:15.553Z,27.13
2023-05-06T10:15:15.537Z,27.14
2023-05-06T10:16:15.889Z,27.14
2023-05-06T10:17:15.664Z,27.16
2023-05-06T10:18:15.686Z,27.14
2023-05-06T10:19:15.731Z,27.16
2023-05-06T10:20:15.813Z,27.16
2023-05-06T10:21:15.826Z,27.14
2023-05-06T10:22:15.919Z,27.16
2023-05-06T10:23:15.954Z,27.16
2023-05-06T10:24:16.016Z,27.14
2023-05-06T10:25:16.063Z,27.14
2023-05-06T10:26:16.105Z,27.14
2023-05-06T10:27:16.154Z,27.17
2023-05-06T10:28:18.330Z,27.14
2023-05-06T10:29:17.182Z,27.16
2023-05-06T10:30:16.167Z,27.17
2023-05-06T10:31:16.210Z,27.17
2023-05-06T10:32:16.184Z,27.17
2023-05-06T10:33:16.152Z,27.17
2023-05-06T10:34:16.147Z,27.20
2023-05-06T10:35:16.133Z,27.19
2023-05-06T10:36:16.170Z,27.20
2023-05-06T10:37:16.127Z,27.20
2023-05-06T10:38:16.102Z,27.20
2023-05-06T10:39:16.112Z,27.22
2023-05-06T10:40:16.123Z,27.20
2023-05-06T10:41:16.166Z,27.23
2023-05-06T10:42:16.199Z,27.22
2023-05-06T10:43:16.258Z,27.23
2023-05-06T10:44:16.293Z,27.22
2023-05-06T10:45:16.326Z,27.22
2023-05-06T10:46:16.547Z,27.22
2023-05-06T10:47:16.424Z,27.22
2023-05-06T10:48:16.491Z,27.22
2023-05-06T10:49:16.508Z,27.23
2023-05-06T10:50:16.599Z,27.19
2023-05-06T10:51:16.649Z,27.25
2023-05-06T10:52:16.636Z,27.22
2023-05-06T10:53:16.691Z,27.20
2023-05-06T10:54:16.744Z,27.22
2023-05-06T10:55:16.789Z,27.22
2023-05-06T10:56:16.824Z,27.20
2023-05-06T10:57:16.835Z,27.20
2023-05-06T10:58:16.924Z,27.22
2023-05-06T10:59:16.959Z,27.22
2023-05-06T11:00:16.991Z,27.23
2023-05-06T11:01:17.033Z,27.25
2023-05-06T11:02:17.102Z,27.22
2023-05-06T11:03:17.176Z,27.22
2023-05-06T11:04:17.169Z,27.22
2023-05-06T11:05:17.216Z,27.22
2023-05-06T11:06:17.262Z,27.25
2023-05-06T11:07:17.316Z,27.23
2023-05-06T11:08:17.328Z,27.25
2023-05-06T11:09:17.365Z,27.26
2023-05-06T11:10:17.414Z,27.25
2023-05-06T11:11:17.475Z,27.25
2023-05-06T11:12:17.515Z,27.25
2023-05-06T11:13:17.655Z,27.26
2023-05-06T11:14:17.586Z,27.25
2023-05-06T11:15:17.621Z,27.27
2023-05-06T11:16:17.692Z,27.27
2023-05-06T11:17:17.716Z,27.29
2023-05-06T11:18:17.799Z,27.32
2023-05-06T11:19:17.799Z,27.30
2023-05-06T11:20:17.839Z,27.29
2023-05-06T11:21:17.863Z,27.30
2023-05-06T11:22:17.940Z,27.29
2023-05-06T11:23:17.958Z,27.32
2023-05-06T11:24:17.966Z,27.32
2023-05-06T11:25:18.018Z,27.32
2023-05-06T11:26:18.051Z,27.30
2023-05-06T11:27:18.080Z,27.32
2023-05-06T11:28:18.131Z,27.30
2023-05-06T11:29:18.168Z,27.30
2023-05-06T11:30:18.179Z,27.30
2023-05-06T11:31:18.284Z,27.32
2023-05-06T11:32:18.266Z,27.29
2023-05-06T11:33:18.353Z,27.30
2023-05-06T11:34:18.474Z,27.30
2023-05-06T11:35:18.417Z,27.30
2023-05-06T11:36:18.475Z,27.30
2023-05-06T11:37:18.469Z,27.32
2023-05-06T11:38:18.529Z,27.32
2023-05-06T11:39:18.551Z,27.30
2023-05-06T11:40:18.587Z,27.32
2023-05-06T11:41:18.661Z,27.30
2023-05-06T11:42:18.692Z,27.32
2023-05-06T11:43:18.714Z,27.30
2023-05-06T11:44:18.755Z,27.33
2023-05-06T11:45:18.828Z,27.33
2023-05-06T11:46:18.904Z,27.33
2023-05-06T11:47:18.869Z,27.36
2023-05-06T11:48:18.926Z,27.33
2023-05-06T11:49:18.958Z,27.36
2023-05-06T11:50:19.073Z,27.36
2023-05-06T11:51:19.023Z,27.37
2023-05-06T11:52:19.070Z,27.36
2023-05-06T11:53:19.176Z,27.36
2023-05-06T11:54:19.145Z,27.37
2023-05-06T11:55:19.149Z,27.40
2023-05-06T11:56:19.172Z,27.36
2023-05-06T11:57:19.204Z,27.38
2023-05-06T11:58:19.259Z,27.38
2023-05-06T11:59:19.303Z,27.40
2023-05-06T12:00:19.320Z,27.40
2023-05-06T12:01:19.367Z,27.40
2023-05-06T12:02:19.445Z,27.41
2023-05-06T12:03:19.566Z,27.38
2023-05-06T12:04:19.445Z,27.40
2023-05-06T12:05:19.551Z,27.43
2023-05-06T12:06:19.516Z,27.40
2023-05-06T12:07:19.543Z,27.38
2023-05-06T12:08:26.881Z,27.40
2023-05-06T12:09:20.538Z,27.40
2023-05-06T12:10:19.541Z,27.41
2023-05-06T12:11:19.531Z,27.38
2023-05-06T12:12:19.520Z,27.40
2023-05-06T12:13:19.670Z,27.40
2023-05-06T12:14:19.545Z,27.37
2023-05-06T12:15:19.516Z,27.41
2023-05-06T12:16:19.507Z,27.40
2023-05-06T12:17:19.509Z,27.41
2023-05-06T12:18:19.474Z,27.44
2023-05-06T12:19:19.486Z,27.40
2023-05-06T12:20:19.442Z,27.40
2023-05-06T12:21:19.493Z,27.43
2023-05-06T12:22:19.610Z,27.41
2023-05-06T12:23:19.428Z,27.41
2023-05-06T12:24:19.501Z,27.43
2023-05-06T12:25:19.457Z,27.43
2023-05-06T12:26:19.429Z,27.43
2023-05-06T12:27:19.428Z,27.44
2023-05-06T12:28:19.441Z,27.44
2023-05-06T12:29:19.433Z,27.43
2023-05-06T12:30:19.494Z,27.44
2023-05-06T12:31:19.614Z,27.43
2023-05-06T12:32:19.535Z,27.44
2023-05-06T12:33:19.538Z,27.43
2023-05-06T12:34:19.581Z,27.44
2023-05-06T12:35:19.585Z,27.46
2023-05-06T12:36:19.760Z,27.46
2023-05-06T12:37:19.665Z,27.44
2023-05-06T12:38:19.720Z,27.44
2023-05-06T12:39:19.723Z,27.46
2023-05-06T12:40:19.726Z,27.46
2023-05-06T12:41:19.745Z,27.46
2023-05-06T12:42:19.744Z,27.46
2023-05-06T12:43:19.756Z,27.47
2023-05-06T12:44:19.809Z,27.48
2023-05-06T12:45:19.844Z,27.50
2023-05-06T12:46:19.967Z,27.46
2023-05-06T12:47:19.855Z,27.48
2023-05-06T12:48:19.878Z,27.48
2023-05-06T12:49:19.881Z,27.48
2023-05-06T12:50:19.926Z,27.50
2023-05-06T12:51:19.974Z,27.50
2023-05-06T12:52:19.979Z,27.50
2023-05-06T12:53:20.003Z,27.51
2023-05-06T12:54:20.235Z,27.50